Pagina principale
METAR-TAF:

METAR-TAF

Aeroporti :

Aeroporto di Roma-Ciampino

Roma Ciampino, Italia

latitudine: 41-47N, longitudine: 012-35E, altezza: 129 m

Osservazione

Il bollettino è stato emesso 38 minuti fa, alle 09:50 UTC
Vento 8 kt da sud/sud-est
Temperature 22°C
Umidità 73%
Pressione 1017 hPa
Visibilità 10 km o più
Nuvoloso ad un'altezza di 3000 ft
Nuvoloso ad un'altezza di 6000 ft

METAR: LIRA 170950Z 16008KT 9999 BKN030 BKN060 22/17 Q1017

Ora: 12:28 (10:28 UTC)

Previsione

Il bollettino è stato emesso 5 ore e 28 minuti fa, alle 05:00 UTC
Previsione valida dal 17 alle 06 UTC al 18 alle 06 UTC
Vento 4 kt da direzioni variabili
Visibilità 10 km o più
Nubi sparse ad un'altezza di 4000 ft
Evoluzione graduale
dal 17 alle 08 UTC al 17 alle 10 UTC
Vento 10 kt da sud/sud-est
Temporaneamente
dal 17 alle 15 UTC al 17 alle 21 UTC
Visibilità: 4000 m
temporale, pioggia

TAF: LIRA 170500Z 1706/1806 VRB04KT 9999 SCT040 BECMG 1708/1710 15010KT TEMPO 1715/1721 4000 TSRA

Osservazioni e previsioni meteorologiche di più di 4000 aeroporti (messaggi METAR e TAF).

Le stazioni disponibili sono rappresentate dai dischi gialli e rossi sulla carta.

Puntare il mouse per vedere il nome della stazione.

Clicca sopra per visualizzare le osservazioni e previsioni meteorologiche.

Per cambiare la mappa : fare clic sui pulsanti verdi con una croce nera per ingrandire, il pulsante verde con un trattino per diminuire, o sulla freccia verde per le mappe adiacenti.


METAR-TAF: